sensor_id;sensor_type;location;lat;lon;timestamp;P1;durP1;ratioP1;P2;durP2;ratioP2
13415;SDS011;6779;50.150;8.680;2023-05-10T00:01:50;1.30;;;1.20;;
13415;SDS011;6779;50.150;8.680;2023-05-10T00:04:15;1.03;;;0.90;;
13415;SDS011;6779;50.150;8.680;2023-05-10T00:06:40;2.37;;;0.90;;
13415;SDS011;6779;50.150;8.680;2023-05-10T00:09:06;2.50;;;1.80;;
13415;SDS011;6779;50.150;8.680;2023-05-10T00:11:31;3.73;;;1.30;;
13415;SDS011;6779;50.150;8.680;2023-05-10T00:13:56;1.43;;;0.97;;
13415;SDS011;6779;50.150;8.680;2023-05-10T00:16:22;1.10;;;1.00;;
13415;SDS011;6779;50.150;8.680;2023-05-10T00:18:47;1.90;;;1.13;;
13415;SDS011;6779;50.150;8.680;2023-05-10T00:21:12;2.07;;;1.87;;
13415;SDS011;6779;50.150;8.680;2023-05-10T00:23:38;2.67;;;1.90;;
13415;SDS011;6779;50.150;8.680;2023-05-10T00:26:03;5.30;;;2.70;;
13415;SDS011;6779;50.150;8.680;2023-05-10T00:28:28;3.23;;;2.60;;
13415;SDS011;6779;50.150;8.680;2023-05-10T00:30:54;5.20;;;2.77;;
13415;SDS011;6779;50.150;8.680;2023-05-10T00:33:20;4.77;;;3.27;;
13415;SDS011;6779;50.150;8.680;2023-05-10T00:35:45;4.20;;;3.07;;
13415;SDS011;6779;50.150;8.680;2023-05-10T00:38:10;4.00;;;2.90;;
13415;SDS011;6779;50.150;8.680;2023-05-10T00:40:36;6.00;;;3.33;;
13415;SDS011;6779;50.150;8.680;2023-05-10T00:43:02;3.70;;;3.33;;
13415;SDS011;6779;50.150;8.680;2023-05-10T00:45:28;4.47;;;3.27;;
13415;SDS011;6779;50.150;8.680;2023-05-10T00:47:54;3.83;;;3.07;;
13415;SDS011;6779;50.150;8.680;2023-05-10T00:50:21;3.30;;;3.00;;
13415;SDS011;6779;50.150;8.680;2023-05-10T00:52:46;5.13;;;2.90;;
13415;SDS011;6779;50.150;8.680;2023-05-10T00:55:12;3.37;;;3.03;;
13415;SDS011;6779;50.150;8.680;2023-05-10T00:57:37;6.30;;;3.00;;
13415;SDS011;6779;50.150;8.680;2023-05-10T01:00:03;3.60;;;2.90;;
13415;SDS011;6779;50.150;8.680;2023-05-10T01:02:29;4.93;;;2.93;;
13415;SDS011;6779;50.150;8.680;2023-05-10T01:04:54;5.37;;;2.70;;
13415;SDS011;6779;50.150;8.680;2023-05-10T01:07:20;5.00;;;3.30;;
13415;SDS011;6779;50.150;8.680;2023-05-10T01:09:45;3.07;;;2.53;;
13415;SDS011;6779;50.150;8.680;2023-05-10T01:12:11;4.10;;;3.00;;
13415;SDS011;6779;50.150;8.680;2023-05-10T01:14:36;4.77;;;2.97;;
13415;SDS011;6779;50.150;8.680;2023-05-10T01:17:01;2.90;;;2.67;;
13415;SDS011;6779;50.150;8.680;2023-05-10T01:19:28;3.10;;;2.17;;
13415;SDS011;6779;50.150;8.680;2023-05-10T01:22:06;3.83;;;2.37;;
13415;SDS011;6779;50.150;8.680;2023-05-10T01:24:54;4.73;;;3.07;;
13415;SDS011;6779;50.150;8.680;2023-05-10T01:35:55;4.37;;;1.80;;
13415;SDS011;6779;50.150;8.680;2023-05-10T01:41:17;2.53;;;2.10;;
13415;SDS011;6779;50.150;8.680;2023-05-10T01:43:48;4.00;;;2.20;;
13415;SDS011;6779;50.150;8.680;2023-05-10T01:46:38;2.70;;;2.00;;
13415;SDS011;6779;50.150;8.680;2023-05-10T01:49:08;2.10;;;1.90;;
13415;SDS011;6779;50.150;8.680;2023-05-10T01:51:42;3.67;;;2.27;;
13415;SDS011;6779;50.150;8.680;2023-05-10T01:54:14;2.37;;;2.17;;
13415;SDS011;6779;50.150;8.680;2023-05-10T01:56:40;2.40;;;2.17;;
13415;SDS011;6779;50.150;8.680;2023-05-10T01:59:08;3.23;;;2.20;;
13415;SDS011;6779;50.150;8.680;2023-05-10T02:01:38;2.00;;;1.80;;
13415;SDS011;6779;50.150;8.680;2023-05-10T02:04:04;1.93;;;1.73;;
13415;SDS011;6779;50.150;8.680;2023-05-10T02:06:32;2.70;;;1.83;;
13415;SDS011;6779;50.150;8.680;2023-05-10T02:08:58;2.00;;;1.73;;
13415;SDS011;6779;50.150;8.680;2023-05-10T02:11:25;3.23;;;1.80;;
13415;SDS011;6779;50.150;8.680;2023-05-10T02:13:52;2.63;;;1.90;;
13415;SDS011;6779;50.150;8.680;2023-05-10T02:16:18;2.10;;;1.60;;
13415;SDS011;6779;50.150;8.680;2023-05-10T02:18:49;3.00;;;1.77;;
13415;SDS011;6779;50.150;8.680;2023-05-10T02:21:15;2.07;;;1.60;;
13415;SDS011;6779;50.150;8.680;2023-05-10T02:23:40;4.20;;;1.70;;
13415;SDS011;6779;50.150;8.680;2023-05-10T02:26:06;4.77;;;1.57;;
13415;SDS011;6779;50.150;8.680;2023-05-10T02:28:31;3.93;;;1.67;;
13415;SDS011;6779;50.150;8.680;2023-05-10T02:30:57;2.33;;;1.70;;
13415;SDS011;6779;50.150;8.680;2023-05-10T02:33:22;1.70;;;1.60;;
13415;SDS011;6779;50.150;8.680;2023-05-10T02:35:48;2.03;;;1.57;;
13415;SDS011;6779;50.150;8.680;2023-05-10T02:38:14;5.23;;;1.70;;
13415;SDS011;6779;50.150;8.680;2023-05-10T02:40:40;1.73;;;1.63;;
13415;SDS011;6779;50.150;8.680;2023-05-10T02:43:06;4.77;;;1.50;;
13415;SDS011;6779;50.150;8.680;2023-05-10T02:45:34;1.93;;;1.63;;
13415;SDS011;6779;50.150;8.680;2023-05-10T02:48:00;4.47;;;1.90;;
13415;SDS011;6779;50.150;8.680;2023-05-10T02:50:27;2.50;;;1.60;;
13415;SDS011;6779;50.150;8.680;2023-05-10T02:52:54;2.23;;;1.67;;
13415;SDS011;6779;50.150;8.680;2023-05-10T02:55:22;2.40;;;1.63;;
13415;SDS011;6779;50.150;8.680;2023-05-10T02:57:51;3.60;;;1.90;;
13415;SDS011;6779;50.150;8.680;2023-05-10T03:00:18;2.13;;;1.50;;
13415;SDS011;6779;50.150;8.680;2023-05-10T03:02:44;2.37;;;2.17;;
13415;SDS011;6779;50.150;8.680;2023-05-10T03:05:09;2.77;;;1.60;;
13415;SDS011;6779;50.150;8.680;2023-05-10T03:07:34;1.63;;;1.53;;
13415;SDS011;6779;50.150;8.680;2023-05-10T03:10:00;3.07;;;1.87;;
13415;SDS011;6779;50.150;8.680;2023-05-10T03:12:41;3.20;;;1.80;;
13415;SDS011;6779;50.150;8.680;2023-05-10T03:15:31;2.10;;;1.90;;
13415;SDS011;6779;50.150;8.680;2023-05-10T03:18:12;4.73;;;2.00;;
13415;SDS011;6779;50.150;8.680;2023-05-10T03:20:47;3.33;;;2.00;;
13415;SDS011;6779;50.150;8.680;2023-05-10T03:25:42;2.27;;;1.80;;
13415;SDS011;6779;50.150;8.680;2023-05-10T03:28:08;3.20;;;1.83;;
13415;SDS011;6779;50.150;8.680;2023-05-10T03:30:34;1.93;;;1.73;;
13415;SDS011;6779;50.150;8.680;2023-05-10T03:33:04;2.20;;;1.90;;
13415;SDS011;6779;50.150;8.680;2023-05-10T03:35:32;2.57;;;2.20;;
13415;SDS011;6779;50.150;8.680;2023-05-10T03:37:57;2.40;;;2.20;;
13415;SDS011;6779;50.150;8.680;2023-05-10T03:40:23;4.57;;;2.40;;
13415;SDS011;6779;50.150;8.680;2023-05-10T03:42:48;3.57;;;2.23;;
13415;SDS011;6779;50.150;8.680;2023-05-10T03:45:14;2.27;;;2.00;;
13415;SDS011;6779;50.150;8.680;2023-05-10T03:47:39;2.30;;;2.10;;
13415;SDS011;6779;50.150;8.680;2023-05-10T03:50:05;2.17;;;1.90;;
13415;SDS011;6779;50.150;8.680;2023-05-10T03:52:31;2.40;;;2.20;;
13415;SDS011;6779;50.150;8.680;2023-05-10T03:54:56;2.20;;;2.00;;
13415;SDS011;6779;50.150;8.680;2023-05-10T03:57:22;4.00;;;2.10;;
13415;SDS011;6779;50.150;8.680;2023-05-10T03:59:47;4.80;;;2.07;;
13415;SDS011;6779;50.150;8.680;2023-05-10T04:02:12;4.37;;;1.80;;
13415;SDS011;6779;50.150;8.680;2023-05-10T04:04:37;2.30;;;2.10;;
13415;SDS011;6779;50.150;8.680;2023-05-10T04:07:03;2.33;;;1.97;;
13415;SDS011;6779;50.150;8.680;2023-05-10T04:09:28;2.43;;;2.23;;
13415;SDS011;6779;50.150;8.680;2023-05-10T04:11:53;2.77;;;2.00;;
13415;SDS011;6779;50.150;8.680;2023-05-10T04:14:19;1.90;;;1.80;;
13415;SDS011;6779;50.150;8.680;2023-05-10T04:16:44;2.67;;;2.00;;
13415;SDS011;6779;50.150;8.680;2023-05-10T04:19:09;2.70;;;1.80;;
13415;SDS011;6779;50.150;8.680;2023-05-10T04:21:35;2.93;;;2.27;;
13415;SDS011;6779;50.150;8.680;2023-05-10T04:24:01;4.10;;;2.00;;
13415;SDS011;6779;50.150;8.680;2023-05-10T04:26:26;3.40;;;2.07;;
13415;SDS011;6779;50.150;8.680;2023-05-10T04:28:51;4.20;;;2.10;;
13415;SDS011;6779;50.150;8.680;2023-05-10T04:31:17;5.23;;;2.20;;
13415;SDS011;6779;50.150;8.680;2023-05-10T04:33:42;2.30;;;2.10;;
13415;SDS011;6779;50.150;8.680;2023-05-10T04:36:07;2.83;;;1.90;;
13415;SDS011;6779;50.150;8.680;2023-05-10T04:38:33;4.10;;;2.10;;
13415;SDS011;6779;50.150;8.680;2023-05-10T04:41:05;3.93;;;2.20;;
13415;SDS011;6779;50.150;8.680;2023-05-10T04:43:31;3.07;;;2.27;;
13415;SDS011;6779;50.150;8.680;2023-05-10T04:45:56;4.17;;;2.30;;
13415;SDS011;6779;50.150;8.680;2023-05-10T04:48:22;4.07;;;2.13;;
13415;SDS011;6779;50.150;8.680;2023-05-10T04:50:47;3.13;;;2.07;;
13415;SDS011;6779;50.150;8.680;2023-05-10T04:53:12;3.40;;;2.23;;
13415;SDS011;6779;50.150;8.680;2023-05-10T04:55:38;3.43;;;2.40;;
13415;SDS011;6779;50.150;8.680;2023-05-10T04:58:03;2.53;;;2.30;;
13415;SDS011;6779;50.150;8.680;2023-05-10T05:00:28;3.20;;;2.73;;
13415;SDS011;6779;50.150;8.680;2023-05-10T05:02:54;3.97;;;2.97;;
13415;SDS011;6779;50.150;8.680;2023-05-10T05:05:19;4.23;;;3.10;;
13415;SDS011;6779;50.150;8.680;2023-05-10T05:07:44;4.77;;;3.43;;
13415;SDS011;6779;50.150;8.680;2023-05-10T05:10:09;4.13;;;2.93;;
13415;SDS011;6779;50.150;8.680;2023-05-10T05:12:35;5.03;;;2.80;;
13415;SDS011;6779;50.150;8.680;2023-05-10T05:15:00;5.67;;;2.60;;
13415;SDS011;6779;50.150;8.680;2023-05-10T05:17:26;3.57;;;2.47;;
13415;SDS011;6779;50.150;8.680;2023-05-10T05:19:51;3.60;;;3.00;;
13415;SDS011;6779;50.150;8.680;2023-05-10T05:22:17;4.13;;;2.83;;
13415;SDS011;6779;50.150;8.680;2023-05-10T05:24:42;3.67;;;3.07;;
13415;SDS011;6779;50.150;8.680;2023-05-10T05:27:07;4.60;;;3.07;;
13415;SDS011;6779;50.150;8.680;2023-05-10T05:29:33;5.77;;;3.57;;
13415;SDS011;6779;50.150;8.680;2023-05-10T05:31:58;4.60;;;3.23;;
13415;SDS011;6779;50.150;8.680;2023-05-10T05:34:23;5.67;;;3.43;;
13415;SDS011;6779;50.150;8.680;2023-05-10T05:36:49;4.60;;;4.00;;
13415;SDS011;6779;50.150;8.680;2023-05-10T05:39:14;5.77;;;3.60;;
13415;SDS011;6779;50.150;8.680;2023-05-10T05:41:40;4.83;;;3.47;;
13415;SDS011;6779;50.150;8.680;2023-05-10T05:44:05;5.43;;;3.50;;
13415;SDS011;6779;50.150;8.680;2023-05-10T05:46:30;4.13;;;3.73;;
13415;SDS011;6779;50.150;8.680;2023-05-10T05:48:55;4.57;;;4.03;;
13415;SDS011;6779;50.150;8.680;2023-05-10T05:51:21;4.17;;;3.73;;
13415;SDS011;6779;50.150;8.680;2023-05-10T05:53:46;6.70;;;4.10;;
13415;SDS011;6779;50.150;8.680;2023-05-10T05:56:12;5.27;;;3.60;;
13415;SDS011;6779;50.150;8.680;2023-05-10T05:58:37;4.43;;;4.03;;
13415;SDS011;6779;50.150;8.680;2023-05-10T06:01:02;5.27;;;3.80;;
13415;SDS011;6779;50.150;8.680;2023-05-10T06:03:28;5.27;;;3.90;;
13415;SDS011;6779;50.150;8.680;2023-05-10T06:05:53;5.97;;;5.00;;
13415;SDS011;6779;50.150;8.680;2023-05-10T06:08:18;5.03;;;4.30;;
13415;SDS011;6779;50.150;8.680;2023-05-10T06:10:44;5.80;;;4.60;;
13415;SDS011;6779;50.150;8.680;2023-05-10T06:13:10;4.80;;;4.40;;
13415;SDS011;6779;50.150;8.680;2023-05-10T06:15:35;5.40;;;4.50;;
13415;SDS011;6779;50.150;8.680;2023-05-10T06:18:01;4.70;;;4.20;;
13415;SDS011;6779;50.150;8.680;2023-05-10T06:20:26;4.40;;;4.00;;
13415;SDS011;6779;50.150;8.680;2023-05-10T06:22:51;5.67;;;4.10;;
13415;SDS011;6779;50.150;8.680;2023-05-10T06:25:16;5.13;;;4.20;;
13415;SDS011;6779;50.150;8.680;2023-05-10T06:27:43;10.87;;;4.77;;
13415;SDS011;6779;50.150;8.680;2023-05-10T06:30:08;5.03;;;4.23;;
13415;SDS011;6779;50.150;8.680;2023-05-10T06:32:34;6.50;;;4.20;;
13415;SDS011;6779;50.150;8.680;2023-05-10T06:34:59;6.53;;;4.23;;
13415;SDS011;6779;50.150;8.680;2023-05-10T06:37:25;5.70;;;4.43;;
13415;SDS011;6779;50.150;8.680;2023-05-10T06:39:50;5.27;;;4.27;;
13415;SDS011;6779;50.150;8.680;2023-05-10T06:42:15;5.23;;;4.73;;
13415;SDS011;6779;50.150;8.680;2023-05-10T06:44:40;6.10;;;4.33;;
13415;SDS011;6779;50.150;8.680;2023-05-10T06:47:06;4.43;;;4.00;;
13415;SDS011;6779;50.150;8.680;2023-05-10T06:49:31;8.37;;;4.80;;
13415;SDS011;6779;50.150;8.680;2023-05-10T06:51:57;7.53;;;4.73;;
13415;SDS011;6779;50.150;8.680;2023-05-10T06:54:22;6.00;;;4.60;;
13415;SDS011;6779;50.150;8.680;2023-05-10T06:56:48;9.93;;;4.90;;
13415;SDS011;6779;50.150;8.680;2023-05-10T06:59:13;6.33;;;4.17;;
13415;SDS011;6779;50.150;8.680;2023-05-10T07:01:40;5.50;;;4.70;;
13415;SDS011;6779;50.150;8.680;2023-05-10T07:04:05;7.23;;;4.40;;
13415;SDS011;6779;50.150;8.680;2023-05-10T07:06:32;5.83;;;4.03;;
13415;SDS011;6779;50.150;8.680;2023-05-10T07:08:58;6.80;;;4.53;;
13415;SDS011;6779;50.150;8.680;2023-05-10T07:11:23;5.27;;;3.93;;
13415;SDS011;6779;50.150;8.680;2023-05-10T07:13:49;7.03;;;4.63;;
13415;SDS011;6779;50.150;8.680;2023-05-10T07:16:14;6.20;;;4.10;;
13415;SDS011;6779;50.150;8.680;2023-05-10T07:18:39;6.93;;;4.20;;
13415;SDS011;6779;50.150;8.680;2023-05-10T07:21:04;7.87;;;4.30;;
13415;SDS011;6779;50.150;8.680;2023-05-10T07:23:30;5.87;;;3.83;;
13415;SDS011;6779;50.150;8.680;2023-05-10T07:25:55;6.47;;;5.07;;
13415;SDS011;6779;50.150;8.680;2023-05-10T07:28:22;5.73;;;4.07;;
13415;SDS011;6779;50.150;8.680;2023-05-10T07:30:48;5.97;;;3.87;;
13415;SDS011;6779;50.150;8.680;2023-05-10T07:33:14;7.60;;;4.83;;
13415;SDS011;6779;50.150;8.680;2023-05-10T07:35:39;5.53;;;4.40;;
13415;SDS011;6779;50.150;8.680;2023-05-10T07:38:05;6.13;;;4.13;;
13415;SDS011;6779;50.150;8.680;2023-05-10T07:40:30;6.03;;;4.17;;
13415;SDS011;6779;50.150;8.680;2023-05-10T07:42:55;5.53;;;3.83;;
13415;SDS011;6779;50.150;8.680;2023-05-10T07:45:21;5.90;;;3.97;;
13415;SDS011;6779;50.150;8.680;2023-05-10T07:47:46;6.37;;;3.40;;
13415;SDS011;6779;50.150;8.680;2023-05-10T07:50:12;7.87;;;3.83;;
13415;SDS011;6779;50.150;8.680;2023-05-10T07:52:37;8.00;;;4.17;;
13415;SDS011;6779;50.150;8.680;2023-05-10T07:55:03;5.37;;;3.70;;
13415;SDS011;6779;50.150;8.680;2023-05-10T07:57:28;5.00;;;3.80;;
13415;SDS011;6779;50.150;8.680;2023-05-10T07:59:53;6.73;;;4.43;;
13415;SDS011;6779;50.150;8.680;2023-05-10T08:02:19;6.17;;;3.83;;
13415;SDS011;6779;50.150;8.680;2023-05-10T08:04:44;8.27;;;3.90;;
13415;SDS011;6779;50.150;8.680;2023-05-10T08:07:09;6.27;;;4.30;;
13415;SDS011;6779;50.150;8.680;2023-05-10T08:09:35;8.53;;;4.07;;
13415;SDS011;6779;50.150;8.680;2023-05-10T08:12:01;5.97;;;3.70;;
13415;SDS011;6779;50.150;8.680;2023-05-10T08:14:27;7.67;;;3.97;;
13415;SDS011;6779;50.150;8.680;2023-05-10T08:16:53;6.10;;;3.63;;
13415;SDS011;6779;50.150;8.680;2023-05-10T08:19:18;4.57;;;3.37;;
13415;SDS011;6779;50.150;8.680;2023-05-10T08:21:46;5.17;;;3.50;;
13415;SDS011;6779;50.150;8.680;2023-05-10T08:24:11;7.63;;;3.50;;
13415;SDS011;6779;50.150;8.680;2023-05-10T08:26:36;5.20;;;3.40;;
13415;SDS011;6779;50.150;8.680;2023-05-10T08:29:02;6.53;;;3.63;;
13415;SDS011;6779;50.150;8.680;2023-05-10T08:31:27;11.87;;;4.17;;
13415;SDS011;6779;50.150;8.680;2023-05-10T08:33:53;5.70;;;3.30;;
13415;SDS011;6779;50.150;8.680;2023-05-10T08:36:18;6.57;;;3.17;;
13415;SDS011;6779;50.150;8.680;2023-05-10T08:38:46;8.50;;;3.57;;
13415;SDS011;6779;50.150;8.680;2023-05-10T08:41:21;7.03;;;3.23;;
13415;SDS011;6779;50.150;8.680;2023-05-10T08:43:47;4.53;;;3.03;;
13415;SDS011;6779;50.150;8.680;2023-05-10T08:46:16;6.37;;;3.40;;
13415;SDS011;6779;50.150;8.680;2023-05-10T08:48:43;7.30;;;3.50;;
13415;SDS011;6779;50.150;8.680;2023-05-10T08:51:09;5.50;;;3.20;;
13415;SDS011;6779;50.150;8.680;2023-05-10T08:53:38;7.00;;;2.70;;
13415;SDS011;6779;50.150;8.680;2023-05-10T08:56:03;5.73;;;3.07;;
13415;SDS011;6779;50.150;8.680;2023-05-10T08:58:29;5.80;;;3.20;;
13415;SDS011;6779;50.150;8.680;2023-05-10T09:00:55;3.80;;;2.87;;
13415;SDS011;6779;50.150;8.680;2023-05-10T09:03:21;4.47;;;2.50;;
13415;SDS011;6779;50.150;8.680;2023-05-10T09:05:46;5.07;;;3.40;;
13415;SDS011;6779;50.150;8.680;2023-05-10T09:08:15;6.00;;;2.93;;
13415;SDS011;6779;50.150;8.680;2023-05-10T09:10:43;5.33;;;3.10;;
13415;SDS011;6779;50.150;8.680;2023-05-10T09:13:12;4.97;;;3.37;;
13415;SDS011;6779;50.150;8.680;2023-05-10T09:15:39;4.03;;;3.37;;
13415;SDS011;6779;50.150;8.680;2023-05-10T09:18:04;6.97;;;3.80;;
13415;SDS011;6779;50.150;8.680;2023-05-10T09:20:30;6.77;;;3.63;;
13415;SDS011;6779;50.150;8.680;2023-05-10T09:22:56;7.43;;;3.80;;
13415;SDS011;6779;50.150;8.680;2023-05-10T09:25:21;5.53;;;3.80;;
13415;SDS011;6779;50.150;8.680;2023-05-10T09:27:47;8.87;;;3.87;;
13415;SDS011;6779;50.150;8.680;2023-05-10T09:30:16;5.00;;;3.40;;
13415;SDS011;6779;50.150;8.680;2023-05-10T09:32:44;5.27;;;3.53;;
13415;SDS011;6779;50.150;8.680;2023-05-10T09:35:11;5.40;;;3.10;;
13415;SDS011;6779;50.150;8.680;2023-05-10T09:37:41;5.37;;;3.70;;
13415;SDS011;6779;50.150;8.680;2023-05-10T09:40:07;6.13;;;3.87;;
13415;SDS011;6779;50.150;8.680;2023-05-10T09:42:37;7.13;;;3.50;;
13415;SDS011;6779;50.150;8.680;2023-05-10T09:45:06;6.80;;;3.40;;
13415;SDS011;6779;50.150;8.680;2023-05-10T09:47:32;6.23;;;3.50;;
13415;SDS011;6779;50.150;8.680;2023-05-10T09:49:58;5.87;;;3.67;;
13415;SDS011;6779;50.150;8.680;2023-05-10T09:52:28;5.97;;;3.03;;
13415;SDS011;6779;50.150;8.680;2023-05-10T09:54:54;4.70;;;3.20;;
13415;SDS011;6779;50.150;8.680;2023-05-10T09:57:20;4.07;;;2.97;;
13415;SDS011;6779;50.150;8.680;2023-05-10T09:59:47;4.60;;;2.60;;
13415;SDS011;6779;50.150;8.680;2023-05-10T10:02:12;2.43;;;1.80;;
13415;SDS011;6779;50.150;8.680;2023-05-10T10:04:39;2.80;;;1.80;;
13415;SDS011;6779;50.150;8.680;2023-05-10T10:07:04;2.20;;;1.93;;
13415;SDS011;6779;50.150;8.680;2023-05-10T10:09:30;4.33;;;1.70;;
13415;SDS011;6779;50.150;8.680;2023-05-10T10:11:56;2.13;;;1.80;;
13415;SDS011;6779;50.150;8.680;2023-05-10T10:14:22;7.73;;;1.80;;
13415;SDS011;6779;50.150;8.680;2023-05-10T10:16:49;4.37;;;2.00;;
13415;SDS011;6779;50.150;8.680;2023-05-10T10:19:15;2.40;;;1.53;;
13415;SDS011;6779;50.150;8.680;2023-05-10T10:21:42;2.23;;;1.93;;
13415;SDS011;6779;50.150;8.680;2023-05-10T10:24:07;4.57;;;2.23;;
13415;SDS011;6779;50.150;8.680;2023-05-10T10:26:33;2.60;;;2.07;;
13415;SDS011;6779;50.150;8.680;2023-05-10T10:29:08;3.30;;;2.30;;
13415;SDS011;6779;50.150;8.680;2023-05-10T10:34:23;4.40;;;2.50;;
13415;SDS011;6779;50.150;8.680;2023-05-10T10:36:52;5.57;;;2.40;;
13415;SDS011;6779;50.150;8.680;2023-05-10T10:39:17;2.87;;;2.20;;
13415;SDS011;6779;50.150;8.680;2023-05-10T10:54:58;2.23;;;1.27;;
13415;SDS011;6779;50.150;8.680;2023-05-10T11:02:53;1.50;;;1.40;;
13415;SDS011;6779;50.150;8.680;2023-05-10T11:05:24;3.77;;;1.10;;
13415;SDS011;6779;50.150;8.680;2023-05-10T11:07:53;2.40;;;1.50;;
13415;SDS011;6779;50.150;8.680;2023-05-10T11:10:20;2.40;;;1.30;;
13415;SDS011;6779;50.150;8.680;2023-05-10T11:12:52;1.53;;;1.30;;
13415;SDS011;6779;50.150;8.680;2023-05-10T11:15:28;1.43;;;1.30;;
13415;SDS011;6779;50.150;8.680;2023-05-10T11:18:23;2.30;;;1.30;;
13415;SDS011;6779;50.150;8.680;2023-05-10T11:20:50;2.07;;;1.40;;
13415;SDS011;6779;50.150;8.680;2023-05-10T11:23:15;2.40;;;1.30;;
13415;SDS011;6779;50.150;8.680;2023-05-10T11:25:42;1.80;;;1.53;;
13415;SDS011;6779;50.150;8.680;2023-05-10T11:28:12;1.60;;;1.20;;
13415;SDS011;6779;50.150;8.680;2023-05-10T11:30:38;1.27;;;1.13;;
13415;SDS011;6779;50.150;8.680;2023-05-10T11:33:04;2.07;;;1.13;;
13415;SDS011;6779;50.150;8.680;2023-05-10T11:35:30;1.17;;;1.07;;
13415;SDS011;6779;50.150;8.680;2023-05-10T11:37:55;2.80;;;1.37;;
13415;SDS011;6779;50.150;8.680;2023-05-10T11:40:21;2.17;;;1.10;;
13415;SDS011;6779;50.150;8.680;2023-05-10T11:42:49;6.43;;;1.43;;
13415;SDS011;6779;50.150;8.680;2023-05-10T11:45:14;4.50;;;1.37;;
13415;SDS011;6779;50.150;8.680;2023-05-10T11:47:40;2.40;;;1.17;;
13415;SDS011;6779;50.150;8.680;2023-05-10T11:50:07;1.97;;;1.30;;
13415;SDS011;6779;50.150;8.680;2023-05-10T11:52:36;1.63;;;1.10;;
13415;SDS011;6779;50.150;8.680;2023-05-10T11:55:02;2.00;;;1.30;;
13415;SDS011;6779;50.150;8.680;2023-05-10T11:57:28;2.57;;;1.40;;
13415;SDS011;6779;50.150;8.680;2023-05-10T11:59:53;3.07;;;1.00;;
13415;SDS011;6779;50.150;8.680;2023-05-10T12:02:22;1.87;;;1.10;;
13415;SDS011;6779;50.150;8.680;2023-05-10T12:04:47;4.20;;;1.57;;
13415;SDS011;6779;50.150;8.680;2023-05-10T12:07:13;2.37;;;1.03;;
13415;SDS011;6779;50.150;8.680;2023-05-10T12:09:55;1.30;;;0.90;;
13415;SDS011;6779;50.150;8.680;2023-05-10T12:12:40;1.53;;;1.40;;
13415;SDS011;6779;50.150;8.680;2023-05-10T12:15:11;2.50;;;1.10;;
13415;SDS011;6779;50.150;8.680;2023-05-10T12:17:38;1.83;;;1.60;;
13415;SDS011;6779;50.150;8.680;2023-05-10T12:20:14;1.33;;;1.20;;
13415;SDS011;6779;50.150;8.680;2023-05-10T12:22:46;2.63;;;1.60;;
13415;SDS011;6779;50.150;8.680;2023-05-10T12:25:21;3.17;;;1.80;;
13415;SDS011;6779;50.150;8.680;2023-05-10T12:27:51;2.93;;;1.80;;
13415;SDS011;6779;50.150;8.680;2023-05-10T12:30:24;3.07;;;1.70;;
13415;SDS011;6779;50.150;8.680;2023-05-10T12:32:51;1.80;;;1.70;;
13415;SDS011;6779;50.150;8.680;2023-05-10T12:35:17;2.43;;;1.70;;
13415;SDS011;6779;50.150;8.680;2023-05-10T12:37:45;2.93;;;1.53;;
13415;SDS011;6779;50.150;8.680;2023-05-10T12:40:11;2.27;;;1.87;;
13415;SDS011;6779;50.150;8.680;2023-05-10T12:42:37;3.37;;;1.77;;
13415;SDS011;6779;50.150;8.680;2023-05-10T12:45:03;1.63;;;1.30;;
13415;SDS011;6779;50.150;8.680;2023-05-10T12:47:30;2.00;;;1.20;;
13415;SDS011;6779;50.150;8.680;2023-05-10T12:49:55;1.57;;;1.30;;
13415;SDS011;6779;50.150;8.680;2023-05-10T12:52:21;1.37;;;1.10;;
13415;SDS011;6779;50.150;8.680;2023-05-10T12:54:46;3.27;;;1.30;;
13415;SDS011;6779;50.150;8.680;2023-05-10T12:57:12;6.10;;;1.47;;
13415;SDS011;6779;50.150;8.680;2023-05-10T12:59:38;1.60;;;1.30;;
13415;SDS011;6779;50.150;8.680;2023-05-10T13:02:03;3.33;;;1.20;;
13415;SDS011;6779;50.150;8.680;2023-05-10T13:04:28;1.73;;;1.33;;
13415;SDS011;6779;50.150;8.680;2023-05-10T13:06:54;1.30;;;1.10;;
13415;SDS011;6779;50.150;8.680;2023-05-10T13:09:23;2.17;;;1.10;;
13415;SDS011;6779;50.150;8.680;2023-05-10T13:11:48;4.77;;;1.27;;
13415;SDS011;6779;50.150;8.680;2023-05-10T13:14:14;1.30;;;1.00;;
13415;SDS011;6779;50.150;8.680;2023-05-10T13:16:39;1.57;;;1.00;;
13415;SDS011;6779;50.150;8.680;2023-05-10T13:19:04;1.13;;;1.00;;
13415;SDS011;6779;50.150;8.680;2023-05-10T13:21:30;1.23;;;0.90;;
13415;SDS011;6779;50.150;8.680;2023-05-10T13:23:55;1.63;;;0.93;;
13415;SDS011;6779;50.150;8.680;2023-05-10T13:26:20;2.50;;;0.80;;
13415;SDS011;6779;50.150;8.680;2023-05-10T13:28:46;2.33;;;1.00;;
13415;SDS011;6779;50.150;8.680;2023-05-10T13:31:11;2.13;;;1.20;;
13415;SDS011;6779;50.150;8.680;2023-05-10T13:33:36;1.70;;;1.00;;
13415;SDS011;6779;50.150;8.680;2023-05-10T13:36:02;1.13;;;1.13;;
13415;SDS011;6779;50.150;8.680;2023-05-10T13:38:27;1.30;;;1.00;;
13415;SDS011;6779;50.150;8.680;2023-05-10T13:40:52;0.97;;;0.93;;
13415;SDS011;6779;50.150;8.680;2023-05-10T13:43:18;1.40;;;1.13;;
13415;SDS011;6779;50.150;8.680;2023-05-10T13:45:44;1.33;;;0.90;;
13415;SDS011;6779;50.150;8.680;2023-05-10T13:48:09;1.23;;;0.90;;
13415;SDS011;6779;50.150;8.680;2023-05-10T13:50:34;1.63;;;1.20;;
13415;SDS011;6779;50.150;8.680;2023-05-10T13:53:00;1.10;;;0.90;;
13415;SDS011;6779;50.150;8.680;2023-05-10T13:55:25;3.83;;;1.27;;
13415;SDS011;6779;50.150;8.680;2023-05-10T13:57:50;1.17;;;1.03;;
13415;SDS011;6779;50.150;8.680;2023-05-10T14:00:16;2.30;;;1.00;;
13415;SDS011;6779;50.150;8.680;2023-05-10T14:02:41;3.20;;;1.10;;
13415;SDS011;6779;50.150;8.680;2023-05-10T14:05:07;1.27;;;0.80;;
13415;SDS011;6779;50.150;8.680;2023-05-10T14:07:32;1.03;;;0.93;;
13415;SDS011;6779;50.150;8.680;2023-05-10T14:09:58;2.33;;;1.00;;
13415;SDS011;6779;50.150;8.680;2023-05-10T14:12:23;1.53;;;1.00;;
13415;SDS011;6779;50.150;8.680;2023-05-10T14:14:48;2.43;;;1.17;;
13415;SDS011;6779;50.150;8.680;2023-05-10T14:17:14;3.50;;;1.13;;
13415;SDS011;6779;50.150;8.680;2023-05-10T14:19:39;1.07;;;0.93;;
13415;SDS011;6779;50.150;8.680;2023-05-10T14:22:04;2.13;;;0.80;;
13415;SDS011;6779;50.150;8.680;2023-05-10T14:24:29;2.00;;;0.97;;
13415;SDS011;6779;50.150;8.680;2023-05-10T14:26:55;3.43;;;1.00;;
13415;SDS011;6779;50.150;8.680;2023-05-10T14:29:20;1.70;;;1.00;;
13415;SDS011;6779;50.150;8.680;2023-05-10T14:31:46;1.30;;;1.20;;
13415;SDS011;6779;50.150;8.680;2023-05-10T14:34:12;1.67;;;1.00;;
13415;SDS011;6779;50.150;8.680;2023-05-10T14:36:37;2.37;;;0.90;;
13415;SDS011;6779;50.150;8.680;2023-05-10T14:39:02;1.60;;;1.00;;
13415;SDS011;6779;50.150;8.680;2023-05-10T14:41:28;1.83;;;1.03;;
13415;SDS011;6779;50.150;8.680;2023-05-10T14:43:55;1.73;;;0.83;;
13415;SDS011;6779;50.150;8.680;2023-05-10T14:46:20;1.40;;;0.80;;
13415;SDS011;6779;50.150;8.680;2023-05-10T14:48:45;0.80;;;0.80;;
13415;SDS011;6779;50.150;8.680;2023-05-10T14:51:11;1.10;;;0.83;;
13415;SDS011;6779;50.150;8.680;2023-05-10T14:53:36;1.13;;;0.90;;
13415;SDS011;6779;50.150;8.680;2023-05-10T14:56:01;2.43;;;0.87;;
13415;SDS011;6779;50.150;8.680;2023-05-10T14:58:27;2.87;;;1.20;;
13415;SDS011;6779;50.150;8.680;2023-05-10T15:00:53;1.50;;;0.93;;
13415;SDS011;6779;50.150;8.680;2023-05-10T15:03:18;2.90;;;1.10;;
13415;SDS011;6779;50.150;8.680;2023-05-10T15:05:43;2.47;;;1.10;;
13415;SDS011;6779;50.150;8.680;2023-05-10T15:08:09;1.73;;;1.10;;
13415;SDS011;6779;50.150;8.680;2023-05-10T15:10:34;1.80;;;1.10;;
13415;SDS011;6779;50.150;8.680;2023-05-10T15:13:00;2.03;;;1.07;;
13415;SDS011;6779;50.150;8.680;2023-05-10T15:15:25;1.90;;;1.00;;
13415;SDS011;6779;50.150;8.680;2023-05-10T15:17:51;1.47;;;0.97;;
13415;SDS011;6779;50.150;8.680;2023-05-10T15:20:16;2.40;;;1.00;;
13415;SDS011;6779;50.150;8.680;2023-05-10T15:22:41;1.20;;;0.90;;
13415;SDS011;6779;50.150;8.680;2023-05-10T15:25:07;1.70;;;1.10;;
13415;SDS011;6779;50.150;8.680;2023-05-10T15:27:32;2.73;;;1.00;;
13415;SDS011;6779;50.150;8.680;2023-05-10T15:29:58;1.03;;;0.80;;
13415;SDS011;6779;50.150;8.680;2023-05-10T15:32:24;1.97;;;0.93;;